createdAt,value
2019-04-05T13:16:38.902Z,101068.85
2019-04-05T13:19:16.431Z,101070.63
2019-04-05T13:21:53.893Z,101072.63
2019-04-05T13:24:31.171Z,101073.40
2019-04-05T13:27:11.524Z,101076.95
2019-04-05T13:29:49.686Z,101081.91
2019-04-05T13:32:27.075Z,101082.03
2019-04-05T13:35:04.379Z,101076.08
2019-04-05T13:37:42.508Z,101073.11
2019-04-05T13:40:20.132Z,101076.75
2019-04-05T13:43:01.427Z,101082.51
2019-04-05T13:45:37.060Z,101087.77
2019-04-05T13:48:14.844Z,101087.39
2019-04-05T13:50:53.032Z,101093.68
2019-04-05T13:53:30.736Z,101100.94
2019-04-05T13:56:08.618Z,101109.75
2019-04-05T13:58:48.136Z,101120.47
2019-04-05T14:01:26.520Z,101127.94
2019-04-05T14:04:04.491Z,101127.64
2019-04-05T14:06:42.822Z,101130.39
2019-04-05T14:09:20.681Z,101124.80
2019-04-05T14:11:58.406Z,101122.41
2019-04-05T14:14:36.189Z,101127.23
2019-04-05T14:17:14.328Z,101125.70
2019-04-05T14:19:51.899Z,101128.37
2019-04-05T14:22:30.266Z,101132.57
2019-04-05T14:25:09.017Z,101131.64
2019-04-05T14:27:46.886Z,101144.42
2019-04-05T14:30:25.003Z,101143.41
2019-04-05T14:33:03.932Z,101148.52
2019-04-05T14:35:41.475Z,101152.10
2019-04-05T14:38:19.816Z,101152.91
2019-04-05T14:40:57.950Z,101154.91
2019-04-05T14:43:37.835Z,101153.45
2019-04-05T14:46:14.993Z,101152.01
2019-04-05T14:48:52.436Z,101159.66
2019-04-05T14:51:30.527Z,101156.64
2019-04-05T14:54:09.942Z,101163.53
2019-04-05T14:56:47.468Z,101173.11
2019-04-05T14:59:25.028Z,101168.97
2019-04-05T15:02:03.044Z,101172.87
2019-04-05T15:04:41.929Z,101173.00
2019-04-05T15:07:21.018Z,101179.77
2019-04-05T15:09:59.165Z,101179.37
2019-04-05T15:12:37.687Z,101173.58
2019-04-05T15:15:15.519Z,101176.88
2019-04-05T15:17:52.975Z,101180.16
2019-04-05T15:20:30.458Z,101176.06
2019-04-05T15:23:09.644Z,101177.67
2019-04-05T15:25:49.835Z,101175.11
2019-04-05T15:28:27.770Z,101170.97
2019-04-05T15:31:04.926Z,101168.38
2019-04-05T15:33:43.454Z,101170.77
2019-04-05T15:36:21.886Z,101173.09
2019-04-05T15:39:01.531Z,101167.74
2019-04-05T15:41:39.737Z,101167.34
2019-04-05T15:44:17.154Z,101165.46
2019-04-05T15:46:54.944Z,101171.53
2019-04-05T15:49:32.790Z,101171.28
2019-04-05T15:52:18.507Z,101161.67
2019-04-05T15:54:50.009Z,101157.22
2019-04-05T15:57:27.501Z,101148.61
2019-04-05T16:00:05.853Z,101145.91
2019-04-05T16:02:43.288Z,101143.50
2019-04-05T16:05:21.636Z,101141.31
2019-04-05T16:08:01.201Z,101141.59
2019-04-05T16:10:38.933Z,101142.46
2019-04-05T16:13:16.368Z,101142.84
2019-04-05T16:15:54.281Z,101139.61
2019-04-05T16:18:32.810Z,101137.59
2019-04-05T16:21:10.616Z,101137.41
2019-04-05T16:23:47.866Z,101129.66
2019-04-05T16:26:25.780Z,101125.73
2019-04-05T16:29:03.813Z,101120.28
2019-04-05T16:31:40.930Z,101111.77
2019-04-05T16:34:18.515Z,101105.38
2019-04-05T16:36:56.766Z,101099.02
2019-04-05T16:39:35.366Z,101094.56
2019-04-05T16:42:12.576Z,101090.52
2019-04-05T16:44:49.152Z,101086.93
2019-04-05T16:47:26.633Z,101081.52
2019-04-05T16:50:04.705Z,101086.30
2019-04-05T16:52:45.236Z,101093.20
2019-04-05T16:55:21.673Z,101085.67
2019-04-05T16:57:59.591Z,101088.13
2019-04-05T17:00:37.719Z,101089.76
2019-04-05T17:03:15.122Z,101082.03
2019-04-05T17:05:52.639Z,101081.25
2019-04-05T17:08:31.352Z,101079.72
2019-04-05T17:11:11.613Z,101082.99
2019-04-05T17:13:49.416Z,101078.30
2019-04-05T17:16:26.788Z,101075.74
2019-04-05T17:19:04.550Z,101071.53
2019-04-05T17:21:42.868Z,101072.47
2019-04-05T17:24:20.735Z,101072.09
2019-04-05T17:26:59.121Z,101069.05
2019-04-05T17:29:36.664Z,101067.31
2019-04-05T17:32:14.696Z,101070.24
2019-04-05T17:34:53.063Z,101068.52
2019-04-05T17:37:30.488Z,101064.73
2019-04-05T17:40:09.195Z,101063.31
2019-04-05T17:42:47.932Z,101063.59
2019-04-05T17:45:26.246Z,101067.87
2019-04-05T17:48:03.886Z,101067.85
2019-04-05T17:50:42.091Z,101067.13
2019-04-05T17:53:23.052Z,101071.48
2019-04-05T17:56:01.105Z,101068.95
2019-04-05T17:58:38.686Z,101065.84
2019-04-05T18:01:16.162Z,101071.89
2019-04-05T18:03:54.235Z,101073.59
2019-04-05T18:06:32.480Z,101066.80
2019-04-05T18:09:10.210Z,101064.41
2019-04-05T18:11:48.014Z,101052.41
2019-04-05T18:14:26.926Z,101054.48
2019-04-05T18:17:04.855Z,101047.22
2019-04-05T18:19:42.204Z,101048.95
2019-04-05T18:22:19.646Z,101043.11
2019-04-05T18:24:57.030Z,101041.06
2019-04-05T18:27:34.455Z,101042.64
2019-04-05T18:30:11.952Z,101039.47
2019-04-05T18:32:49.581Z,101027.75
2019-04-05T18:35:27.588Z,101025.89
2019-04-05T18:38:05.450Z,101013.07
2019-04-05T18:40:42.576Z,101011.19
2019-04-05T18:43:21.512Z,101004.80
2019-04-05T18:46:00.526Z,101005.59
2019-04-05T18:48:38.496Z,101005.30
2019-04-05T18:51:15.705Z,101002.30
2019-04-05T18:53:54.210Z,100997.95
2019-04-05T18:56:32.861Z,101001.33
2019-04-05T18:59:10.288Z,101003.95
2019-04-05T19:01:47.792Z,101007.59
2019-04-05T19:04:26.390Z,101001.95
2019-04-05T19:07:04.121Z,101007.39
2019-04-05T19:09:41.699Z,101006.05
2019-04-05T19:12:18.816Z,101005.17
2019-04-05T19:14:57.873Z,101010.27
2019-04-05T19:17:37.757Z,100998.96
2019-04-05T19:20:15.464Z,100990.64
2019-04-05T19:22:53.151Z,100982.61
2019-04-05T19:25:30.706Z,100973.63
2019-04-05T19:28:08.352Z,100971.11
2019-04-05T19:49:20.541Z,100961.09
2019-04-05T19:51:57.905Z,100957.19
2019-04-05T19:54:35.587Z,100952.78
2019-04-05T19:57:13.568Z,100960.27
2019-04-05T19:59:51.431Z,100961.81
2019-04-05T20:02:28.938Z,100960.38
2019-04-05T20:05:06.293Z,100955.31
2019-04-05T20:07:44.186Z,100956.25
2019-04-05T20:10:21.578Z,100949.55
2019-04-05T20:12:59.693Z,100945.81
2019-04-05T20:15:40.399Z,100949.52
2019-04-05T20:18:18.016Z,100942.47
2019-04-05T20:20:56.512Z,100942.71
2019-04-05T20:23:33.450Z,100942.92
2019-04-05T20:26:10.727Z,100945.45
2019-04-05T20:28:48.509Z,100945.41
2019-04-05T20:31:26.112Z,100943.20
2019-04-05T20:34:03.818Z,100945.11
2019-04-05T20:36:41.472Z,100952.28
2019-04-05T20:39:19.483Z,100956.75
2019-04-05T20:41:57.437Z,100948.98
2019-04-05T20:44:35.674Z,100945.78
2019-04-05T20:47:12.926Z,100942.47
2019-04-05T20:49:50.503Z,100950.52
2019-04-05T20:52:28.939Z,100951.71
2019-04-05T20:55:07.108Z,100958.75
2019-04-05T20:57:44.757Z,100956.56
2019-04-05T21:00:22.689Z,100952.39
2019-04-05T21:03:00.488Z,100949.33
2019-04-05T21:05:38.172Z,100944.53
2019-04-05T21:08:15.780Z,100948.78
2019-04-05T21:10:53.396Z,100947.69
2019-04-05T21:13:31.372Z,100954.83
2019-04-05T21:16:09.164Z,100945.62
2019-04-05T21:18:46.587Z,100947.57
2019-04-05T21:21:24.457Z,100946.09
2019-04-05T21:24:02.996Z,100952.05
2019-04-05T21:26:41.077Z,100953.84
2019-04-05T21:29:17.972Z,100952.39
2019-04-05T21:31:56.047Z,100957.42
2019-04-05T21:34:34.800Z,100958.05
2019-04-05T21:37:12.355Z,100958.16
2019-04-05T21:39:49.917Z,100945.03
2019-04-05T21:42:28.466Z,100949.11
2019-04-05T21:45:06.891Z,100956.44
2019-04-05T21:47:44.916Z,100955.26
2019-04-05T21:50:22.126Z,100956.01
2019-04-05T21:52:59.722Z,100953.03
2019-04-05T21:55:38.989Z,100956.01
2019-04-05T21:58:16.914Z,100963.77
2019-04-05T22:00:59.058Z,100959.30
2019-04-05T22:03:37.274Z,100962.23
2019-04-05T22:06:15.443Z,100963.02
2019-04-05T22:08:53.159Z,100967.61
2019-04-05T22:11:30.339Z,100966.52
2019-04-05T22:14:07.963Z,100963.53
2019-04-05T22:16:46.424Z,100969.57
2019-04-05T22:19:24.685Z,100975.30
2019-04-05T22:22:01.825Z,100966.28
2019-04-05T22:24:40.213Z,100966.71
2019-04-05T22:27:18.789Z,100971.22
2019-04-05T22:29:56.333Z,100975.84
2019-04-05T22:32:33.586Z,100979.37
2019-04-05T22:35:13.617Z,100979.06
2019-04-05T22:37:51.522Z,100984.08
2019-04-05T22:40:29.487Z,100973.30
2019-04-05T22:43:06.782Z,100976.03
2019-04-05T22:45:45.262Z,100976.70
2019-04-05T22:48:23.790Z,100979.53
2019-04-05T22:51:01.466Z,100977.34
2019-04-05T22:53:38.699Z,100973.41
2019-04-05T22:56:17.343Z,100978.36
2019-04-05T22:58:56.222Z,100971.84
2019-04-05T23:01:34.082Z,100983.14
2019-04-05T23:04:11.575Z,100976.28
2019-04-05T23:06:48.980Z,100983.68
2019-04-05T23:09:26.621Z,100978.66
2019-04-05T23:12:03.956Z,100974.40
2019-04-05T23:14:42.498Z,100978.59
2019-04-05T23:17:20.221Z,100981.05
2019-04-05T23:19:58.797Z,100982.67
2019-04-05T23:22:36.994Z,100988.20
2019-04-05T23:25:21.993Z,100998.35
2019-04-05T23:27:54.378Z,100990.03
2019-04-05T23:30:34.566Z,100988.86
2019-04-05T23:33:12.516Z,100997.45
2019-04-05T23:35:50.082Z,101002.47
2019-04-05T23:38:27.696Z,101001.37
2019-04-05T23:41:05.700Z,101006.63
2019-04-05T23:43:43.268Z,101009.99
2019-04-05T23:46:20.501Z,101012.86
2019-04-05T23:48:58.412Z,101012.33
2019-04-05T23:51:36.355Z,101014.88
2019-04-05T23:54:13.678Z,101025.67
2019-04-05T23:56:51.423Z,101036.61
2019-04-05T23:59:29.722Z,101042.17
